sensor_id;sensor_type;location;lat;lon;timestamp;pressure;altitude;pressure_sealevel;temperature;humidity
65329;BME280;51941;52.210;5.158;2022-10-22T00:01:19;100815.38;;;14.20;89.97
65329;BME280;51941;52.210;5.158;2022-10-22T00:03:46;100821.22;;;14.22;90.13
65329;BME280;51941;52.210;5.158;2022-10-22T00:06:14;100819.91;;;14.24;90.04
65329;BME280;51941;52.210;5.158;2022-10-22T00:08:40;100821.25;;;14.27;90.09
65329;BME280;51941;52.210;5.158;2022-10-22T00:11:09;100819.97;;;14.29;90.01
65329;BME280;51941;52.210;5.158;2022-10-22T00:13:36;100812.50;;;14.31;89.98
65329;BME280;51941;52.210;5.158;2022-10-22T00:16:03;100820.00;;;14.34;90.03
65329;BME280;51941;52.210;5.158;2022-10-22T00:18:29;100820.25;;;14.33;89.94
65329;BME280;51941;52.210;5.158;2022-10-22T00:20:56;100819.19;;;14.34;89.97
65329;BME280;51941;52.210;5.158;2022-10-22T00:23:24;100822.41;;;14.36;89.99
65329;BME280;51941;52.210;5.158;2022-10-22T00:25:52;100830.94;;;14.38;90.02
65329;BME280;51941;52.210;5.158;2022-10-22T00:28:18;100829.34;;;14.37;90.11
65329;BME280;51941;52.210;5.158;2022-10-22T00:30:45;100833.59;;;14.38;89.99
65329;BME280;51941;52.210;5.158;2022-10-22T00:33:12;100833.06;;;14.36;90.12
65329;BME280;51941;52.210;5.158;2022-10-22T00:35:39;100820.78;;;14.30;89.97
65329;BME280;51941;52.210;5.158;2022-10-22T00:38:05;100827.16;;;14.34;89.89
65329;BME280;51941;52.210;5.158;2022-10-22T00:40:33;100833.84;;;14.36;89.80
65329;BME280;51941;52.210;5.158;2022-10-22T00:43:00;100824.25;;;14.35;90.10
65329;BME280;51941;52.210;5.158;2022-10-22T00:45:27;100821.59;;;14.35;89.90
65329;BME280;51941;52.210;5.158;2022-10-22T00:47:57;100825.56;;;14.33;89.88
65329;BME280;51941;52.210;5.158;2022-10-22T00:50:28;100819.66;;;14.26;89.92
65329;BME280;51941;52.210;5.158;2022-10-22T00:52:56;100824.97;;;14.21;89.94
65329;BME280;51941;52.210;5.158;2022-10-22T00:55:24;100788.25;;;13.91;90.24
65329;BME280;51941;52.210;5.158;2022-10-22T00:57:54;100825.38;;;14.07;90.40
65329;BME280;51941;52.210;5.158;2022-10-22T01:00:22;100829.59;;;14.03;90.42
65329;BME280;51941;52.210;5.158;2022-10-22T01:02:50;100832.47;;;13.97;90.62
65329;BME280;51941;52.210;5.158;2022-10-22T01:05:18;100824.69;;;13.90;90.72
65329;BME280;51941;52.210;5.158;2022-10-22T01:07:47;100830.25;;;13.89;90.75
65329;BME280;51941;52.210;5.158;2022-10-22T01:10:31;100835.34;;;13.90;90.56
65329;BME280;51941;52.210;5.158;2022-10-22T01:13:11;100843.00;;;13.87;90.53
65329;BME280;51941;52.210;5.158;2022-10-22T01:15:46;100837.69;;;13.87;90.54
65329;BME280;51941;52.210;5.158;2022-10-22T01:18:20;100835.78;;;13.82;90.54
65329;BME280;51941;52.210;5.158;2022-10-22T01:20:58;100851.28;;;13.90;90.79
65329;BME280;51941;52.210;5.158;2022-10-22T01:26:39;100847.38;;;13.98;90.85
65329;BME280;51941;52.210;5.158;2022-10-22T01:29:11;100836.97;;;13.96;90.62
65329;BME280;51941;52.210;5.158;2022-10-22T01:31:42;100840.75;;;14.00;90.70
65329;BME280;51941;52.210;5.158;2022-10-22T01:34:11;100839.94;;;14.00;90.54
65329;BME280;51941;52.210;5.158;2022-10-22T01:36:40;100843.66;;;13.99;90.61
65329;BME280;51941;52.210;5.158;2022-10-22T01:39:08;100832.97;;;13.94;90.56
65329;BME280;51941;52.210;5.158;2022-10-22T01:41:38;100834.59;;;13.95;90.82
65329;BME280;51941;52.210;5.158;2022-10-22T01:44:04;100844.44;;;13.94;90.66
65329;BME280;51941;52.210;5.158;2022-10-22T01:46:33;100839.34;;;13.93;90.89
65329;BME280;51941;52.210;5.158;2022-10-22T01:49:12;100832.97;;;13.94;90.90
65329;BME280;51941;52.210;5.158;2022-10-22T01:51:50;100839.09;;;13.94;90.76
65329;BME280;51941;52.210;5.158;2022-10-22T01:54:26;100830.03;;;13.95;90.78
65329;BME280;51941;52.210;5.158;2022-10-22T01:57:01;100829.78;;;13.97;90.86
65329;BME280;51941;52.210;5.158;2022-10-22T01:59:37;100768.56;;;13.60;90.71
65329;BME280;51941;52.210;5.158;2022-10-22T02:02:12;100823.16;;;13.94;90.97
65329;BME280;51941;52.210;5.158;2022-10-22T02:04:45;100820.72;;;13.93;90.88
65329;BME280;51941;52.210;5.158;2022-10-22T02:07:17;100819.34;;;13.85;90.87
65329;BME280;51941;52.210;5.158;2022-10-22T02:09:45;100824.66;;;13.85;90.88
65329;BME280;51941;52.210;5.158;2022-10-22T02:12:12;100819.81;;;13.82;90.91
65329;BME280;51941;52.210;5.158;2022-10-22T02:14:42;100813.38;;;13.78;90.83
65329;BME280;51941;52.210;5.158;2022-10-22T02:17:15;100812.59;;;13.78;90.99
65329;BME280;51941;52.210;5.158;2022-10-22T02:19:47;100815.25;;;13.78;90.96
65329;BME280;51941;52.210;5.158;2022-10-22T02:22:16;100817.13;;;13.77;91.01
65329;BME280;51941;52.210;5.158;2022-10-22T02:24:43;100814.75;;;13.81;91.12
65329;BME280;51941;52.210;5.158;2022-10-22T02:27:17;100815.31;;;13.83;91.29
65329;BME280;51941;52.210;5.158;2022-10-22T02:29:50;100812.16;;;13.86;91.03
65329;BME280;51941;52.210;5.158;2022-10-22T02:32:21;100818.53;;;13.85;90.89
65329;BME280;51941;52.210;5.158;2022-10-22T02:34:50;100810.78;;;13.83;90.88
65329;BME280;51941;52.210;5.158;2022-10-22T02:37:18;100816.84;;;13.79;91.11
65329;BME280;51941;52.210;5.158;2022-10-22T02:39:45;100812.88;;;13.76;90.88
65329;BME280;51941;52.210;5.158;2022-10-22T02:42:13;100809.66;;;13.74;90.83
65329;BME280;51941;52.210;5.158;2022-10-22T02:44:39;100815.47;;;13.71;90.88
65329;BME280;51941;52.210;5.158;2022-10-22T02:47:06;100817.56;;;13.69;90.97
65329;BME280;51941;52.210;5.158;2022-10-22T02:49:34;100814.13;;;13.68;91.17
65329;BME280;51941;52.210;5.158;2022-10-22T02:52:01;100823.69;;;13.69;91.05
65329;BME280;51941;52.210;5.158;2022-10-22T02:54:28;100823.16;;;13.67;91.26
65329;BME280;51941;52.210;5.158;2022-10-22T02:56:54;100815.19;;;13.67;91.06
65329;BME280;51941;52.210;5.158;2022-10-22T02:59:21;100824.44;;;13.65;90.97
65329;BME280;51941;52.210;5.158;2022-10-22T03:01:48;100820.19;;;13.64;91.05
65329;BME280;51941;52.210;5.158;2022-10-22T03:04:15;100820.66;;;13.61;90.99
65329;BME280;51941;52.210;5.158;2022-10-22T03:06:43;100827.06;;;13.60;91.19
65329;BME280;51941;52.210;5.158;2022-10-22T03:09:09;100832.63;;;13.58;90.96
65329;BME280;51941;52.210;5.158;2022-10-22T03:11:36;100828.38;;;13.57;91.10
65329;BME280;51941;52.210;5.158;2022-10-22T03:14:03;100827.56;;;13.57;91.13
65329;BME280;51941;52.210;5.158;2022-10-22T03:16:30;100833.44;;;13.59;91.24
65329;BME280;51941;52.210;5.158;2022-10-22T03:18:56;100827.59;;;13.62;91.28
65329;BME280;51941;52.210;5.158;2022-10-22T03:21:29;100843.81;;;13.60;91.44
65329;BME280;51941;52.210;5.158;2022-10-22T03:24:00;100825.50;;;13.64;91.15
65329;BME280;51941;52.210;5.158;2022-10-22T03:26:28;100831.88;;;13.63;91.19
65329;BME280;51941;52.210;5.158;2022-10-22T03:28:55;100831.88;;;13.63;91.15
65329;BME280;51941;52.210;5.158;2022-10-22T03:31:22;100832.66;;;13.63;91.00
65329;BME280;51941;52.210;5.158;2022-10-22T03:33:48;100827.59;;;13.62;91.16
65329;BME280;51941;52.210;5.158;2022-10-22T03:36:15;100835.81;;;13.60;91.20
65329;BME280;51941;52.210;5.158;2022-10-22T03:38:42;100836.09;;;13.59;91.23
65329;BME280;51941;52.210;5.158;2022-10-22T03:41:10;100848.84;;;13.57;91.31
65329;BME280;51941;52.210;5.158;2022-10-22T03:43:37;100841.09;;;13.55;91.07
65329;BME280;51941;52.210;5.158;2022-10-22T03:46:05;100848.28;;;13.55;91.22
65329;BME280;51941;52.210;5.158;2022-10-22T03:48:31;100847.97;;;13.51;91.41
65329;BME280;51941;52.210;5.158;2022-10-22T03:50:58;100842.91;;;13.50;91.29
65329;BME280;51941;52.210;5.158;2022-10-22T03:53:25;100848.47;;;13.48;91.21
65329;BME280;51941;52.210;5.158;2022-10-22T03:55:52;100842.59;;;13.46;91.08
65329;BME280;51941;52.210;5.158;2022-10-22T03:58:20;100855.34;;;13.44;91.10
65329;BME280;51941;52.210;5.158;2022-10-22T04:00:46;100843.22;;;13.31;90.97
65329;BME280;51941;52.210;5.158;2022-10-22T04:03:13;100850.19;;;13.38;91.08
65329;BME280;51941;52.210;5.158;2022-10-22T04:05:40;100852.28;;;13.36;91.09
65329;BME280;51941;52.210;5.158;2022-10-22T04:08:07;100858.13;;;13.32;91.19
65329;BME280;51941;52.210;5.158;2022-10-22T04:10:33;100856.19;;;13.28;91.08
65329;BME280;51941;52.210;5.158;2022-10-22T04:13:00;100861.50;;;13.28;91.14
65329;BME280;51941;52.210;5.158;2022-10-22T04:15:28;100854.75;;;13.20;91.16
65329;BME280;51941;52.210;5.158;2022-10-22T04:17:55;100864.09;;;13.23;91.50
65329;BME280;51941;52.210;5.158;2022-10-22T04:20:22;100867.28;;;13.25;91.34
65329;BME280;51941;52.210;5.158;2022-10-22T04:22:48;100869.72;;;13.26;91.44
65329;BME280;51941;52.210;5.158;2022-10-22T04:25:15;100867.06;;;13.26;91.48
65329;BME280;51941;52.210;5.158;2022-10-22T04:27:42;100871.31;;;13.27;91.50
65329;BME280;51941;52.210;5.158;2022-10-22T04:30:09;100872.94;;;13.28;91.59
65329;BME280;51941;52.210;5.158;2022-10-22T04:32:38;100862.75;;;13.20;91.51
65329;BME280;51941;52.210;5.158;2022-10-22T04:35:05;100870.34;;;13.34;91.55
65329;BME280;51941;52.210;5.158;2022-10-22T04:37:32;100873.31;;;13.37;91.43
65329;BME280;51941;52.210;5.158;2022-10-22T04:39:58;100872.50;;;13.37;91.64
65329;BME280;51941;52.210;5.158;2022-10-22T04:42:25;100870.44;;;13.39;91.63
65329;BME280;51941;52.210;5.158;2022-10-22T04:44:52;100874.69;;;13.40;91.53
65329;BME280;51941;52.210;5.158;2022-10-22T04:47:19;100877.94;;;13.42;91.61
65329;BME280;51941;52.210;5.158;2022-10-22T04:49:47;100878.06;;;13.35;91.60
65329;BME280;51941;52.210;5.158;2022-10-22T04:52:13;100873.41;;;13.42;91.66
65329;BME280;51941;52.210;5.158;2022-10-22T04:54:40;100883.78;;;13.44;91.55
65329;BME280;51941;52.210;5.158;2022-10-22T04:57:07;100885.16;;;13.46;91.66
65329;BME280;51941;52.210;5.158;2022-10-22T04:59:34;100883.53;;;13.45;91.68
65329;BME280;51941;52.210;5.158;2022-10-22T05:02:00;100889.91;;;13.44;91.62
65329;BME280;51941;52.210;5.158;2022-10-22T05:04:27;100892.31;;;13.46;91.63
65329;BME280;51941;52.210;5.158;2022-10-22T05:06:55;100889.66;;;13.46;91.56
65329;BME280;51941;52.210;5.158;2022-10-22T05:09:22;100892.56;;;13.44;91.64
65329;BME280;51941;52.210;5.158;2022-10-22T05:11:50;100891.75;;;13.44;91.63
65329;BME280;51941;52.210;5.158;2022-10-22T05:14:18;100886.44;;;13.44;91.58
65329;BME280;51941;52.210;5.158;2022-10-22T05:16:45;100835.53;;;13.13;91.67
65329;BME280;51941;52.210;5.158;2022-10-22T05:19:15;100882.69;;;13.40;91.63
65329;BME280;51941;52.210;5.158;2022-10-22T05:21:43;100883.13;;;13.37;91.52
65329;BME280;51941;52.210;5.158;2022-10-22T05:24:11;100886.78;;;13.30;91.65
65329;BME280;51941;52.210;5.158;2022-10-22T05:26:38;100889.63;;;13.24;91.81
65329;BME280;51941;52.210;5.158;2022-10-22T05:29:04;100890.34;;;13.19;91.57
65329;BME280;51941;52.210;5.158;2022-10-22T05:31:31;100898.56;;;13.18;91.41
65329;BME280;51941;52.210;5.158;2022-10-22T05:33:58;100897.72;;;13.12;91.43
65329;BME280;51941;52.210;5.158;2022-10-22T05:36:25;100896.91;;;13.12;91.54
65329;BME280;51941;52.210;5.158;2022-10-22T05:38:52;100902.72;;;13.09;91.52
65329;BME280;51941;52.210;5.158;2022-10-22T05:41:22;100899.75;;;13.05;91.70
65329;BME280;51941;52.210;5.158;2022-10-22T05:43:49;100901.38;;;13.06;91.64
65329;BME280;51941;52.210;5.158;2022-10-22T05:46:18;100898.13;;;13.04;91.77
65329;BME280;51941;52.210;5.158;2022-10-22T05:48:48;100879.34;;;12.89;91.82
65329;BME280;51941;52.210;5.158;2022-10-22T05:51:15;100903.94;;;13.01;91.73
65329;BME280;51941;52.210;5.158;2022-10-22T05:53:41;100908.44;;;13.01;91.77
65329;BME280;51941;52.210;5.158;2022-10-22T05:56:11;100912.16;;;13.00;91.85
65329;BME280;51941;52.210;5.158;2022-10-22T05:58:40;100921.16;;;12.99;91.84
65329;BME280;51941;52.210;5.158;2022-10-22T06:01:11;100922.47;;;12.96;92.04
65329;BME280;51941;52.210;5.158;2022-10-22T06:03:38;100926.41;;;12.93;92.12
65329;BME280;51941;52.210;5.158;2022-10-22T06:06:14;100921.09;;;12.93;92.21
65329;BME280;51941;52.210;5.158;2022-10-22T06:08:42;100930.44;;;12.96;92.09
65329;BME280;51941;52.210;5.158;2022-10-22T06:11:08;100929.63;;;12.96;92.17
65329;BME280;51941;52.210;5.158;2022-10-22T06:13:35;100935.75;;;12.96;92.08
65329;BME280;51941;52.210;5.158;2022-10-22T06:16:04;100944.78;;;12.95;92.23
65329;BME280;51941;52.210;5.158;2022-10-22T06:18:32;100945.81;;;12.94;92.21
65329;BME280;51941;52.210;5.158;2022-10-22T06:21:03;100890.88;;;12.61;92.20
65329;BME280;51941;52.210;5.158;2022-10-22T06:23:30;100939.75;;;12.99;92.39
65329;BME280;51941;52.210;5.158;2022-10-22T06:25:58;100944.94;;;13.05;92.41
65329;BME280;51941;52.210;5.158;2022-10-22T06:28:25;100951.69;;;13.13;92.49
65329;BME280;51941;52.210;5.158;2022-10-22T06:30:52;100946.19;;;13.19;92.54
65329;BME280;51941;52.210;5.158;2022-10-22T06:33:20;100953.72;;;13.27;92.58
65329;BME280;51941;52.210;5.158;2022-10-22T06:35:46;100956.19;;;13.34;92.56
65329;BME280;51941;52.210;5.158;2022-10-22T06:38:13;100962.22;;;13.41;92.66
65329;BME280;51941;52.210;5.158;2022-10-22T06:40:40;100961.53;;;13.51;92.60
65329;BME280;51941;52.210;5.158;2022-10-22T06:43:08;100971.75;;;13.59;92.53
65329;BME280;51941;52.210;5.158;2022-10-22T06:45:35;100977.69;;;13.66;92.55
65329;BME280;51941;52.210;5.158;2022-10-22T06:48:01;100980.94;;;13.73;92.39
65329;BME280;51941;52.210;5.158;2022-10-22T06:50:30;100934.38;;;13.49;92.23
65329;BME280;51941;52.210;5.158;2022-10-22T06:52:57;100985.59;;;13.83;92.67
65329;BME280;51941;52.210;5.158;2022-10-22T06:55:23;100983.25;;;13.86;92.65
65329;BME280;51941;52.210;5.158;2022-10-22T06:57:50;100989.72;;;13.95;92.38
65329;BME280;51941;52.210;5.158;2022-10-22T07:00:17;101005.75;;;14.00;92.40
65329;BME280;51941;52.210;5.158;2022-10-22T07:02:49;101006.59;;;14.06;92.44
65329;BME280;51941;52.210;5.158;2022-10-22T07:05:17;101001.13;;;14.13;92.30
65329;BME280;51941;52.210;5.158;2022-10-22T07:07:45;101004.88;;;14.17;92.14
65329;BME280;51941;52.210;5.158;2022-10-22T07:10:11;101003.31;;;14.21;91.97
65329;BME280;51941;52.210;5.158;2022-10-22T07:12:38;101009.00;;;14.29;91.97
65329;BME280;51941;52.210;5.158;2022-10-22T07:15:05;101007.50;;;14.38;92.05
65329;BME280;51941;52.210;5.158;2022-10-22T07:17:32;101008.91;;;14.46;91.96
65329;BME280;51941;52.210;5.158;2022-10-22T07:19:59;100929.94;;;14.03;91.52
65329;BME280;51941;52.210;5.158;2022-10-22T07:22:26;101005.28;;;14.57;91.40
65329;BME280;51941;52.210;5.158;2022-10-22T07:24:54;101011.25;;;14.64;91.19
65329;BME280;51941;52.210;5.158;2022-10-22T07:27:20;101012.09;;;14.70;91.24
65329;BME280;51941;52.210;5.158;2022-10-22T07:29:47;101027.28;;;14.74;90.90
65329;BME280;51941;52.210;5.158;2022-10-22T07:32:14;101016.38;;;14.76;90.69
65329;BME280;51941;52.210;5.158;2022-10-22T07:34:41;101027.66;;;14.83;90.65
65329;BME280;51941;52.210;5.158;2022-10-22T07:37:07;101034.38;;;14.91;90.49
65329;BME280;51941;52.210;5.158;2022-10-22T07:39:34;101029.06;;;14.91;90.03
65329;BME280;51941;52.210;5.158;2022-10-22T07:42:02;101037.91;;;15.01;90.01
65329;BME280;51941;52.210;5.158;2022-10-22T07:44:29;101043.88;;;15.13;90.01
65329;BME280;51941;52.210;5.158;2022-10-22T07:46:56;101047.44;;;15.24;89.63
65329;BME280;51941;52.210;5.158;2022-10-22T07:49:23;101039.69;;;15.28;89.16
65329;BME280;51941;52.210;5.158;2022-10-22T07:51:49;101040.00;;;15.31;88.77
65329;BME280;51941;52.210;5.158;2022-10-22T07:54:16;101041.91;;;15.36;88.96
65329;BME280;51941;52.210;5.158;2022-10-22T07:56:43;101052.59;;;15.41;88.29
65329;BME280;51941;52.210;5.158;2022-10-22T07:59:11;101021.03;;;15.28;88.11
65329;BME280;51941;52.210;5.158;2022-10-22T08:01:38;101057.22;;;15.55;87.45
65329;BME280;51941;52.210;5.158;2022-10-22T08:04:05;101067.44;;;15.64;87.00
65329;BME280;51941;52.210;5.158;2022-10-22T08:06:32;101068.78;;;15.66;86.67
65329;BME280;51941;52.210;5.158;2022-10-22T08:08:59;101071.47;;;15.71;86.49
65329;BME280;51941;52.210;5.158;2022-10-22T08:11:26;101067.50;;;15.74;86.40
65329;BME280;51941;52.210;5.158;2022-10-22T08:13:52;101063.78;;;15.75;86.42
65329;BME280;51941;52.210;5.158;2022-10-22T08:16:20;101074.47;;;15.80;86.30
65329;BME280;51941;52.210;5.158;2022-10-22T08:18:47;101076.63;;;15.78;85.95
65329;BME280;51941;52.210;5.158;2022-10-22T08:21:14;101086.22;;;15.79;86.04
65329;BME280;51941;52.210;5.158;2022-10-22T08:23:41;101055.09;;;15.52;85.98
65329;BME280;51941;52.210;5.158;2022-10-22T08:26:09;101088.66;;;15.85;86.09
65329;BME280;51941;52.210;5.158;2022-10-22T08:28:35;101086.03;;;15.96;85.94
65329;BME280;51941;52.210;5.158;2022-10-22T08:31:02;101092.75;;;16.03;85.76
65329;BME280;51941;52.210;5.158;2022-10-22T08:33:30;101097.59;;;16.16;85.82
65329;BME280;51941;52.210;5.158;2022-10-22T08:35:57;101075.41;;;16.11;85.44
65329;BME280;51941;52.210;5.158;2022-10-22T08:38:24;101077.59;;;16.14;84.68
65329;BME280;51941;52.210;5.158;2022-10-22T08:40:53;101047.06;;;16.00;84.75
65329;BME280;51941;52.210;5.158;2022-10-22T08:43:46;101054.88;;;16.11;84.00
65329;BME280;51941;52.210;5.158;2022-10-22T08:46:32;101103.03;;;16.37;83.39
65329;BME280;51941;52.210;5.158;2022-10-22T08:49:08;101104.38;;;16.39;83.10
65329;BME280;51941;52.210;5.158;2022-10-22T08:51:37;101106.25;;;16.39;83.28
65329;BME280;51941;52.210;5.158;2022-10-22T08:54:13;101103.59;;;16.49;83.27
65329;BME280;51941;52.210;5.158;2022-10-22T08:56:44;101113.78;;;16.57;83.33
65329;BME280;51941;52.210;5.158;2022-10-22T08:59:19;101080.03;;;16.36;82.86
65329;BME280;51941;52.210;5.158;2022-10-22T09:01:50;101115.34;;;16.53;82.74
65329;BME280;51941;52.210;5.158;2022-10-22T09:04:23;101115.91;;;16.50;83.00
65329;BME280;51941;52.210;5.158;2022-10-22T09:06:53;101118.03;;;16.53;82.72
65329;BME280;51941;52.210;5.158;2022-10-22T09:09:24;101128.78;;;16.63;82.58
65329;BME280;51941;52.210;5.158;2022-10-22T09:11:53;101124.00;;;16.70;82.36
65329;BME280;51941;52.210;5.158;2022-10-22T09:14:24;101132.56;;;16.72;82.14
65329;BME280;51941;52.210;5.158;2022-10-22T09:17:11;101135.75;;;16.79;81.78
65329;BME280;51941;52.210;5.158;2022-10-22T09:19:46;101138.44;;;16.79;81.05
65329;BME280;51941;52.210;5.158;2022-10-22T09:22:24;101141.66;;;16.86;81.51
65329;BME280;51941;52.210;5.158;2022-10-22T09:24:58;101144.63;;;16.85;81.06
65329;BME280;51941;52.210;5.158;2022-10-22T09:27:27;101144.63;;;16.90;81.07
65329;BME280;51941;52.210;5.158;2022-10-22T09:29:54;101154.25;;;16.96;80.55
65329;BME280;51941;52.210;5.158;2022-10-22T09:32:21;101145.19;;;17.07;80.29
65329;BME280;51941;52.210;5.158;2022-10-22T09:34:55;101157.50;;;17.23;79.96
65329;BME280;51941;52.210;5.158;2022-10-22T09:37:25;101159.38;;;17.38;80.16
65329;BME280;51941;52.210;5.158;2022-10-22T09:39:53;101157.25;;;17.55;79.89
65329;BME280;51941;52.210;5.158;2022-10-22T09:42:21;101159.66;;;17.67;78.97
65329;BME280;51941;52.210;5.158;2022-10-22T09:44:51;101158.31;;;17.69;78.10
65329;BME280;51941;52.210;5.158;2022-10-22T09:47:31;101161.78;;;17.65;76.97
65329;BME280;51941;52.210;5.158;2022-10-22T09:50:17;101167.94;;;17.65;77.28
65329;BME280;51941;52.210;5.158;2022-10-22T09:52:45;101146.00;;;17.38;77.29
65329;BME280;51941;52.210;5.158;2022-10-22T09:55:20;101155.34;;;17.40;77.43
65329;BME280;51941;52.210;5.158;2022-10-22T09:57:52;101178.38;;;17.47;77.49
65329;BME280;51941;52.210;5.158;2022-10-22T10:00:19;101153.47;;;17.26;77.85
65329;BME280;51941;52.210;5.158;2022-10-22T10:02:53;101191.50;;;17.43;77.78
65329;BME280;51941;52.210;5.158;2022-10-22T10:05:25;101188.78;;;17.48;77.93
65329;BME280;51941;52.210;5.158;2022-10-22T10:07:52;101193.63;;;17.46;77.52
65329;BME280;51941;52.210;5.158;2022-10-22T10:10:27;101191.22;;;17.34;77.16
65329;BME280;51941;52.210;5.158;2022-10-22T10:13:02;101169.50;;;17.05;77.22
65329;BME280;51941;52.210;5.158;2022-10-22T10:15:37;101204.84;;;17.23;77.49
65329;BME280;51941;52.210;5.158;2022-10-22T10:18:23;101200.03;;;17.30;77.71
65329;BME280;51941;52.210;5.158;2022-10-22T10:20:55;101201.91;;;17.24;77.39
65329;BME280;51941;52.210;5.158;2022-10-22T10:23:31;101208.06;;;17.20;77.66
65329;BME280;51941;52.210;5.158;2022-10-22T10:26:04;101212.88;;;17.18;76.99
65329;BME280;51941;52.210;5.158;2022-10-22T10:28:43;101216.09;;;17.20;77.35
65329;BME280;51941;52.210;5.158;2022-10-22T10:31:27;101221.97;;;17.22;77.10
65329;BME280;51941;52.210;5.158;2022-10-22T10:34:05;101218.22;;;17.23;76.89
65329;BME280;51941;52.210;5.158;2022-10-22T10:36:42;101223.88;;;17.36;76.66
65329;BME280;51941;52.210;5.158;2022-10-22T10:39:16;101232.16;;;17.50;76.36
65329;BME280;51941;52.210;5.158;2022-10-22T10:41:51;101209.16;;;17.54;75.84
65329;BME280;51941;52.210;5.158;2022-10-22T10:44:35;101232.19;;;17.75;75.12
65329;BME280;51941;52.210;5.158;2022-10-22T10:47:14;101227.66;;;17.76;75.05
65329;BME280;51941;52.210;5.158;2022-10-22T10:49:45;101231.13;;;17.82;74.89
65329;BME280;51941;52.210;5.158;2022-10-22T10:52:20;101247.44;;;17.95;74.83
65329;BME280;51941;52.210;5.158;2022-10-22T10:55:05;101246.38;;;17.96;74.36
65329;BME280;51941;52.210;5.158;2022-10-22T10:57:42;101246.38;;;17.96;73.82
65329;BME280;51941;52.210;5.158;2022-10-22T11:00:14;101242.13;;;17.90;74.16
65329;BME280;51941;52.210;5.158;2022-10-22T11:03:11;101246.13;;;17.88;74.06
65329;BME280;51941;52.210;5.158;2022-10-22T11:05:44;101244.25;;;17.83;74.12
65329;BME280;51941;52.210;5.158;2022-10-22T11:08:19;101203.56;;;17.61;74.02
65329;BME280;51941;52.210;5.158;2022-10-22T11:10:49;101242.38;;;17.89;73.64
65329;BME280;51941;52.210;5.158;2022-10-22T11:13:22;101214.81;;;17.68;73.74
65329;BME280;51941;52.210;5.158;2022-10-22T11:15:58;101241.56;;;17.88;73.74
65329;BME280;51941;52.210;5.158;2022-10-22T11:18:30;101250.16;;;17.90;74.04
65329;BME280;51941;52.210;5.158;2022-10-22T11:21:17;101222.03;;;17.77;73.19
65329;BME280;51941;52.210;5.158;2022-10-22T11:23:50;101252.53;;;18.07;73.12
65329;BME280;51941;52.210;5.158;2022-10-22T11:26:29;101252.53;;;18.12;71.94
65329;BME280;51941;52.210;5.158;2022-10-22T11:29:00;101242.34;;;18.04;71.44
65329;BME280;51941;52.210;5.158;2022-10-22T11:31:29;101258.97;;;17.96;71.44
65329;BME280;51941;52.210;5.158;2022-10-22T11:34:03;101233.28;;;17.90;71.70
65329;BME280;51941;52.210;5.158;2022-10-22T11:36:32;101253.31;;;18.12;71.70
65329;BME280;51941;52.210;5.158;2022-10-22T11:39:03;101251.69;;;18.22;71.15
65329;BME280;51941;52.210;5.158;2022-10-22T11:41:32;101266.97;;;18.11;70.49
65329;BME280;51941;52.210;5.158;2022-10-22T11:44:08;101263.50;;;18.26;70.23
65329;BME280;51941;52.210;5.158;2022-10-22T11:46:43;101262.41;;;18.32;69.66
65329;BME280;51941;52.210;5.158;2022-10-22T11:49:22;101258.66;;;18.33;69.42
65329;BME280;51941;52.210;5.158;2022-10-22T11:51:50;101260.25;;;18.39;69.73
65329;BME280;51941;52.210;5.158;2022-10-22T11:54:37;101243.34;;;18.48;69.09
65329;BME280;51941;52.210;5.158;2022-10-22T11:57:19;101234.47;;;18.58;67.34
65329;BME280;51941;52.210;5.158;2022-10-22T11:59:49;101267.53;;;18.98;67.62
65329;BME280;51941;52.210;5.158;2022-10-22T12:02:30;101249.06;;;18.96;66.68
65329;BME280;51941;52.210;5.158;2022-10-22T12:05:34;101265.63;;;19.08;64.98
65329;BME280;51941;52.210;5.158;2022-10-22T12:08:19;101273.72;;;19.03;65.16
65329;BME280;51941;52.210;5.158;2022-10-22T12:11:12;101275.09;;;18.96;65.66
65329;BME280;51941;52.210;5.158;2022-10-22T12:16:39;101277.00;;;18.80;65.68
65329;BME280;51941;52.210;5.158;2022-10-22T12:19:14;101261.56;;;18.57;65.66
65329;BME280;51941;52.210;5.158;2022-10-22T12:21:44;101278.19;;;18.48;65.85
65329;BME280;51941;52.210;5.158;2022-10-22T12:24:13;101273.91;;;18.37;66.12
65329;BME280;51941;52.210;5.158;2022-10-22T12:26:42;101275.28;;;18.25;66.47
65329;BME280;51941;52.210;5.158;2022-10-22T12:29:12;101267.78;;;18.11;66.48
65329;BME280;51941;52.210;5.158;2022-10-22T12:31:40;101274.47;;;18.24;66.67
65329;BME280;51941;52.210;5.158;2022-10-22T12:34:13;101283.03;;;18.26;66.13
65329;BME280;51941;52.210;5.158;2022-10-22T12:36:40;101292.69;;;18.32;66.16
65329;BME280;51941;52.210;5.158;2022-10-22T12:39:11;101284.06;;;18.45;66.46
65329;BME280;51941;52.210;5.158;2022-10-22T12:41:38;101293.19;;;18.54;66.11
65329;BME280;51941;52.210;5.158;2022-10-22T12:44:10;101289.13;;;18.62;65.76
65329;BME280;51941;52.210;5.158;2022-10-22T12:46:37;101292.34;;;18.64;64.99
65329;BME280;51941;52.210;5.158;2022-10-22T12:49:07;101284.84;;;18.66;64.77
65329;BME280;51941;52.210;5.158;2022-10-22T12:51:37;101292.66;;;18.58;64.36
65329;BME280;51941;52.210;5.158;2022-10-22T12:54:07;101280.06;;;18.53;63.30
65329;BME280;51941;52.210;5.158;2022-10-22T12:56:36;101262.13;;;18.28;62.87
65329;BME280;51941;52.210;5.158;2022-10-22T12:59:10;101279.53;;;18.36;63.13
65329;BME280;51941;52.210;5.158;2022-10-22T13:01:41;101226.00;;;18.10;63.64
65329;BME280;51941;52.210;5.158;2022-10-22T13:04:19;101284.06;;;18.56;63.01
65329;BME280;51941;52.210;5.158;2022-10-22T13:06:47;101257.81;;;18.47;63.11
65329;BME280;51941;52.210;5.158;2022-10-22T13:09:17;101280.84;;;18.53;62.60
65329;BME280;51941;52.210;5.158;2022-10-22T13:11:49;101262.66;;;18.50;62.96